createdAt,value
2018-09-25T00:01:57.045Z,14.11
2018-09-25T00:04:31.389Z,14.07
2018-09-25T00:07:05.518Z,14.11
2018-09-25T00:09:39.893Z,14.21
2018-09-25T00:12:13.864Z,14.16
2018-09-25T00:14:48.001Z,14.30
2018-09-25T00:17:21.937Z,14.21
2018-09-25T00:19:56.185Z,14.37
2018-09-25T00:22:30.183Z,14.38
2018-09-25T00:25:04.674Z,14.35
2018-09-25T00:27:38.679Z,14.31
2018-09-25T00:30:13.170Z,14.18
2018-09-25T00:32:47.277Z,14.20
2018-09-25T00:35:21.304Z,14.17
2018-09-25T00:37:55.487Z,14.22
2018-09-25T00:40:29.763Z,14.22
2018-09-25T00:43:03.944Z,14.18
2018-09-25T00:45:38.082Z,14.13
2018-09-25T00:48:12.142Z,14.13
2018-09-25T00:50:46.422Z,14.12
2018-09-25T00:53:20.412Z,14.22
2018-09-25T00:55:54.866Z,14.23
2018-09-25T00:58:28.915Z,14.23
2018-09-25T01:01:02.994Z,14.19
2018-09-25T01:03:36.989Z,14.26
2018-09-25T01:06:11.474Z,14.34
2018-09-25T01:08:45.477Z,14.23
2018-09-25T01:11:19.626Z,14.22
2018-09-25T01:13:54.170Z,14.20
2018-09-25T01:16:28.561Z,14.23
2018-09-25T01:19:02.778Z,14.25
2018-09-25T01:21:37.233Z,14.43
2018-09-25T01:24:11.229Z,14.26
2018-09-25T01:26:45.450Z,14.33
2018-09-25T01:29:19.497Z,14.25
2018-09-25T01:31:53.891Z,14.35
2018-09-25T01:34:27.853Z,14.18
2018-09-25T01:37:02.112Z,14.14
2018-09-25T01:39:36.226Z,14.24
2018-09-25T01:42:10.743Z,14.22
2018-09-25T01:44:44.819Z,14.21
2018-09-25T01:47:18.981Z,14.14
2018-09-25T01:49:52.969Z,14.02
2018-09-25T01:52:27.264Z,14.15
2018-09-25T01:55:02.351Z,14.14
2018-09-25T01:57:36.634Z,14.22
2018-09-25T02:00:10.825Z,14.07
2018-09-25T02:02:45.295Z,14.08
2018-09-25T02:05:19.218Z,14.18
2018-09-25T02:07:53.266Z,14.17
2018-09-25T02:10:27.173Z,14.23
2018-09-25T02:13:01.421Z,14.17
2018-09-25T02:15:35.508Z,14.18
2018-09-25T02:18:09.810Z,14.17
2018-09-25T02:20:43.901Z,14.17
2018-09-25T02:23:18.138Z,14.11
2018-09-25T02:25:52.085Z,14.03
2018-09-25T02:28:26.522Z,14.21
2018-09-25T02:31:00.506Z,14.20
2018-09-25T02:33:34.505Z,14.04
2018-09-25T02:36:08.639Z,14.14
2018-09-25T02:38:42.982Z,13.91
2018-09-25T02:41:16.995Z,14.04
2018-09-25T02:43:50.999Z,14.00
2018-09-25T02:46:25.092Z,13.91
2018-09-25T02:48:59.550Z,13.95
2018-09-25T02:51:33.761Z,13.98
2018-09-25T02:54:07.730Z,14.06
2018-09-25T02:56:41.844Z,14.15
2018-09-25T02:59:16.235Z,13.97
2018-09-25T03:01:50.194Z,14.00
2018-09-25T03:04:24.359Z,13.84
2018-09-25T03:06:58.465Z,13.89
2018-09-25T03:09:32.894Z,13.82
2018-09-25T03:12:07.116Z,13.96
2018-09-25T03:14:41.078Z,13.87
2018-09-25T03:17:14.985Z,13.86
2018-09-25T03:19:49.178Z,13.96
2018-09-25T03:22:23.195Z,13.97
2018-09-25T03:24:57.252Z,13.92
2018-09-25T03:27:31.199Z,13.91
2018-09-25T03:30:05.671Z,13.86
2018-09-25T03:32:39.690Z,13.74
2018-09-25T03:35:13.853Z,13.80
2018-09-25T03:37:47.956Z,13.82
2018-09-25T03:40:22.374Z,13.89
2018-09-25T03:42:56.487Z,13.78
2018-09-25T03:45:30.493Z,13.73
2018-09-25T03:48:04.438Z,13.68
2018-09-25T03:50:38.877Z,13.76
2018-09-25T03:53:12.811Z,13.85
2018-09-25T03:55:46.935Z,13.89
2018-09-25T03:58:20.894Z,13.84
2018-09-25T04:00:55.139Z,13.77
2018-09-25T04:03:29.322Z,13.72
2018-09-25T04:06:03.563Z,13.78
2018-09-25T04:08:37.728Z,13.97
2018-09-25T04:11:12.312Z,13.86
2018-09-25T04:13:46.415Z,13.85
2018-09-25T04:16:21.874Z,13.83
2018-09-25T04:18:56.039Z,13.91
2018-09-25T04:21:30.238Z,13.80
2018-09-25T04:24:04.338Z,13.84
2018-09-25T04:26:38.755Z,14.00
2018-09-25T04:29:12.764Z,14.19
2018-09-25T04:31:47.027Z,14.01
2018-09-25T04:34:21.148Z,14.20
2018-09-25T04:36:55.417Z,13.93
2018-09-25T04:39:29.553Z,13.94
2018-09-25T04:42:04.001Z,13.96
2018-09-25T04:44:38.101Z,13.85
2018-09-25T04:47:12.687Z,13.86
2018-09-25T04:49:46.597Z,13.73
2018-09-25T04:52:21.043Z,13.80
2018-09-25T04:54:55.075Z,13.86
2018-09-25T04:57:29.100Z,13.75
2018-09-25T05:00:03.170Z,13.62
2018-09-25T05:02:37.559Z,13.75
2018-09-25T05:05:11.869Z,13.97
2018-09-25T05:07:46.004Z,13.88
2018-09-25T05:10:19.942Z,13.91
2018-09-25T05:12:54.213Z,13.92
2018-09-25T05:15:28.205Z,14.05
2018-09-25T05:18:02.349Z,14.06
2018-09-25T05:20:36.296Z,13.93
2018-09-25T05:23:10.689Z,13.99
2018-09-25T05:25:44.719Z,13.96
2018-09-25T05:28:18.733Z,13.85
2018-09-25T05:30:52.697Z,13.88
2018-09-25T05:33:26.813Z,13.66
2018-09-25T05:36:00.998Z,13.84
2018-09-25T05:38:35.009Z,13.71
2018-09-25T05:41:08.930Z,13.58
2018-09-25T05:43:43.269Z,13.60
2018-09-25T05:46:17.459Z,13.61
2018-09-25T05:48:51.532Z,13.76
2018-09-25T05:51:25.790Z,13.88
2018-09-25T05:54:00.225Z,13.79
2018-09-25T05:56:34.257Z,13.74
2018-09-25T05:59:08.313Z,13.92
2018-09-25T06:01:42.436Z,14.00
2018-09-25T06:04:16.423Z,14.01
2018-09-25T06:06:50.473Z,14.37
2018-09-25T06:09:25.035Z,14.37
2018-09-25T06:11:59.180Z,14.57
2018-09-25T06:14:33.203Z,14.64
2018-09-25T06:17:07.293Z,14.65
2018-09-25T06:19:41.292Z,14.64
2018-09-25T06:22:15.258Z,14.82
2018-09-25T06:24:49.632Z,14.69
2018-09-25T06:27:23.627Z,14.73
2018-09-25T06:29:57.990Z,14.66
2018-09-25T06:32:32.060Z,14.65
2018-09-25T06:35:06.277Z,14.40
2018-09-25T06:37:40.420Z,14.51
2018-09-25T06:40:14.831Z,14.66
2018-09-25T06:42:49.104Z,14.91
2018-09-25T06:45:23.233Z,14.84
2018-09-25T06:47:57.658Z,14.77
2018-09-25T06:50:31.997Z,14.82
2018-09-25T06:53:05.954Z,14.91
2018-09-25T06:55:40.136Z,14.87
2018-09-25T06:58:14.383Z,15.12
2018-09-25T07:00:48.879Z,14.99
2018-09-25T07:03:22.920Z,15.22
2018-09-25T07:05:57.185Z,15.09
2018-09-25T07:08:31.146Z,15.13
2018-09-25T07:11:05.551Z,15.18
2018-09-25T07:13:39.751Z,15.23
2018-09-25T07:16:13.769Z,14.97
2018-09-25T07:18:47.791Z,14.90
2018-09-25T07:21:22.087Z,14.64
2018-09-25T07:23:56.040Z,14.78
2018-09-25T07:26:30.199Z,14.52
2018-09-25T07:29:04.382Z,14.54
2018-09-25T07:31:38.727Z,14.48
2018-09-25T07:34:12.752Z,14.49
2018-09-25T07:36:47.352Z,14.39
2018-09-25T07:39:21.488Z,14.37
2018-09-25T07:41:55.557Z,14.27
2018-09-25T07:44:29.539Z,14.20
2018-09-25T07:47:03.930Z,14.43
2018-09-25T07:49:38.001Z,14.38
2018-09-25T07:52:12.505Z,14.55
2018-09-25T07:54:46.471Z,14.46
2018-09-25T07:57:20.691Z,14.47
2018-09-25T07:59:54.683Z,14.49
2018-09-25T08:02:28.942Z,14.55
2018-09-25T08:05:02.901Z,14.96
2018-09-25T08:07:37.428Z,14.86
2018-09-25T08:10:11.621Z,14.88
2018-09-25T08:12:45.781Z,15.07
2018-09-25T08:15:19.965Z,14.92
2018-09-25T08:17:54.398Z,15.25
2018-09-25T08:20:28.490Z,15.46
2018-09-25T08:23:02.509Z,15.60
2018-09-25T08:25:36.551Z,15.82
2018-09-25T08:28:10.762Z,15.80
2018-09-25T08:30:44.799Z,15.84
2018-09-25T08:33:18.848Z,16.14
2018-09-25T08:35:52.873Z,16.13
2018-09-25T08:38:27.217Z,16.17
2018-09-25T08:41:01.454Z,16.22
2018-09-25T08:43:35.653Z,16.29
2018-09-25T08:46:09.923Z,16.63
2018-09-25T08:48:44.378Z,16.90
2018-09-25T08:51:18.378Z,17.17
2018-09-25T08:53:52.636Z,17.25
2018-09-25T08:56:26.638Z,17.51
2018-09-25T08:59:00.936Z,17.12
2018-09-25T09:01:34.911Z,17.34
2018-09-25T09:04:08.921Z,17.25
2018-09-25T09:06:42.985Z,17.32
2018-09-25T09:09:17.181Z,17.91
2018-09-25T09:11:51.264Z,17.62
2018-09-25T09:14:25.636Z,17.85
2018-09-25T09:16:59.657Z,17.88
2018-09-25T09:19:33.867Z,17.85
2018-09-25T09:22:08.012Z,17.90
2018-09-25T09:24:42.224Z,17.86
2018-09-25T09:27:16.284Z,17.89
2018-09-25T09:29:50.613Z,17.93
2018-09-25T09:32:24.704Z,18.02
2018-09-25T09:34:59.245Z,17.97
2018-09-25T09:37:33.378Z,18.30
2018-09-25T09:40:07.525Z,18.41
2018-09-25T09:42:41.518Z,18.49
2018-09-25T09:45:15.662Z,18.89
2018-09-25T09:47:49.805Z,18.51
2018-09-25T09:50:23.962Z,18.68
2018-09-25T09:52:58.060Z,19.16
2018-09-25T09:55:32.570Z,18.85
2018-09-25T09:58:06.536Z,18.64
2018-09-25T10:00:40.802Z,18.68
2018-09-25T10:03:14.805Z,18.83
2018-09-25T10:05:49.220Z,19.05
2018-09-25T10:08:23.171Z,18.92
2018-09-25T10:10:57.559Z,18.80
2018-09-25T10:13:31.509Z,18.63
2018-09-25T10:16:05.546Z,18.76
2018-09-25T10:18:39.724Z,19.43
2018-09-25T10:21:13.927Z,19.09
2018-09-25T10:23:48.027Z,18.98
2018-09-25T10:26:22.350Z,18.83
2018-09-25T10:28:56.533Z,18.76
2018-09-25T10:31:30.679Z,18.72
2018-09-25T10:34:04.712Z,18.52
2018-09-25T10:36:39.105Z,18.83
2018-09-25T10:39:14.413Z,19.02
2018-09-25T10:41:48.819Z,19.00
2018-09-25T10:44:23.069Z,18.75
2018-09-25T10:46:57.133Z,18.50
2018-09-25T10:49:31.085Z,18.81
2018-09-25T10:52:05.239Z,18.81
2018-09-25T10:54:39.411Z,19.14
2018-09-25T10:57:13.870Z,18.95
2018-09-25T10:59:48.286Z,18.91
2018-09-25T11:02:22.518Z,18.96
2018-09-25T11:04:56.721Z,19.30
2018-09-25T11:07:31.005Z,19.44
2018-09-25T11:10:05.290Z,19.26
2018-09-25T11:12:39.703Z,19.24
2018-09-25T11:15:13.849Z,19.21
2018-09-25T11:17:47.973Z,19.38
2018-09-25T11:20:21.984Z,19.66
2018-09-25T11:22:56.409Z,19.70
2018-09-25T11:25:30.568Z,19.73
2018-09-25T11:28:04.547Z,19.83
2018-09-25T11:30:38.869Z,19.88
2018-09-25T11:33:12.977Z,19.80
2018-09-25T11:35:47.143Z,19.97
2018-09-25T11:38:21.814Z,20.14
2018-09-25T11:40:56.097Z,20.22
2018-09-25T11:43:30.651Z,20.30
2018-09-25T11:46:04.689Z,20.16
2018-09-25T11:48:38.909Z,19.91
2018-09-25T11:51:13.170Z,20.32
2018-09-25T11:53:47.644Z,20.90
2018-09-25T11:56:21.703Z,20.69
2018-09-25T11:58:55.685Z,21.18
2018-09-25T12:01:29.794Z,20.46
2018-09-25T12:04:04.145Z,20.59
2018-09-25T12:06:38.072Z,20.60
2018-09-25T12:09:14.554Z,20.52
2018-09-25T12:11:49.251Z,20.46
2018-09-25T12:14:23.789Z,20.71
2018-09-25T12:16:57.902Z,20.44
2018-09-25T12:19:32.929Z,20.91
2018-09-25T12:22:06.936Z,20.82
2018-09-25T12:24:41.132Z,20.86
2018-09-25T12:27:15.411Z,20.72
2018-09-25T12:29:50.044Z,20.83
2018-09-25T12:32:24.168Z,20.89
2018-09-25T12:34:58.646Z,21.23
2018-09-25T12:37:32.853Z,21.24
2018-09-25T12:40:07.010Z,21.22
2018-09-25T12:42:41.468Z,21.27
2018-09-25T12:45:15.957Z,21.13
2018-09-25T12:47:49.920Z,21.30
2018-09-25T12:50:24.194Z,21.12
2018-09-25T12:52:58.157Z,21.57
2018-09-25T12:55:32.619Z,20.96
2018-09-25T12:58:07.790Z,20.86
2018-09-25T13:00:42.032Z,21.11
2018-09-25T13:03:16.008Z,20.75
2018-09-25T13:05:50.573Z,21.08
2018-09-25T13:08:24.557Z,21.04
2018-09-25T13:10:58.812Z,20.78
2018-09-25T13:13:32.857Z,20.95
2018-09-25T13:16:07.066Z,20.77
2018-09-25T13:18:41.181Z,20.75
2018-09-25T13:21:15.579Z,20.71
2018-09-25T13:23:49.756Z,20.83
2018-09-25T13:26:23.978Z,20.90
2018-09-25T13:28:57.894Z,20.84
2018-09-25T13:31:32.354Z,20.52
2018-09-25T13:34:06.440Z,20.58
2018-09-25T13:36:40.563Z,20.35
2018-09-25T13:39:14.917Z,20.46
2018-09-25T13:41:49.302Z,20.52
2018-09-25T13:44:23.408Z,20.46
2018-09-25T13:46:57.709Z,20.27
2018-09-25T13:49:31.851Z,20.22
2018-09-25T13:52:05.892Z,20.36
2018-09-25T13:54:40.083Z,20.34
2018-09-25T13:57:14.418Z,20.55
2018-09-25T13:59:48.531Z,20.38
2018-09-25T14:02:22.630Z,20.24
2018-09-25T14:04:56.945Z,20.22
2018-09-25T14:07:31.287Z,20.26
2018-09-25T14:10:05.963Z,20.39
2018-09-25T14:12:40.157Z,20.27
2018-09-25T14:15:14.200Z,20.14
2018-09-25T14:17:48.663Z,20.12
2018-09-25T14:20:22.844Z,20.28
2018-09-25T14:22:57.073Z,20.14
2018-09-25T14:25:31.114Z,20.22
2018-09-25T14:28:05.730Z,20.85
2018-09-25T14:30:39.897Z,20.64
2018-09-25T14:33:14.243Z,20.39
2018-09-25T14:35:48.793Z,20.12
2018-09-25T14:38:23.203Z,20.51
2018-09-25T14:40:57.328Z,20.13
2018-09-25T14:43:31.512Z,20.25
2018-09-25T14:46:05.776Z,20.23
2018-09-25T14:48:41.780Z,20.21
2018-09-25T14:51:15.882Z,20.18
2018-09-25T14:56:23.247Z,19.99
2018-09-25T14:58:58.503Z,20.02
2018-09-25T15:01:32.511Z,19.73
2018-09-25T15:04:06.753Z,19.88
2018-09-25T15:06:40.808Z,20.16
2018-09-25T15:09:15.317Z,19.64
2018-09-25T15:11:49.452Z,19.55
2018-09-25T15:14:23.510Z,19.36
2018-09-25T15:16:57.679Z,19.59
2018-09-25T15:19:32.703Z,19.37
2018-09-25T15:22:07.096Z,19.25
2018-09-25T15:24:40.964Z,19.15
2018-09-25T15:27:15.112Z,18.64
2018-09-25T15:29:49.355Z,18.74
2018-09-25T15:32:23.461Z,18.35
2018-09-25T15:34:57.656Z,18.24
2018-09-25T15:37:31.825Z,18.43
2018-09-25T15:40:06.139Z,18.16
2018-09-25T15:42:40.155Z,18.39
2018-09-25T15:45:14.561Z,18.53
2018-09-25T15:47:48.743Z,18.22
2018-09-25T15:50:22.872Z,18.23
2018-09-25T15:52:56.999Z,17.93
2018-09-25T15:55:31.254Z,17.89
2018-09-25T15:58:05.418Z,17.81
2018-09-25T16:00:39.643Z,17.63
2018-09-25T16:03:13.697Z,17.86
2018-09-25T16:05:48.291Z,17.25
2018-09-25T16:08:22.527Z,17.75
2018-09-25T16:10:57.046Z,17.53
2018-09-25T16:13:31.237Z,17.42
2018-09-25T16:16:05.774Z,17.50
2018-09-25T16:18:39.892Z,18.07
2018-09-25T16:21:13.961Z,17.77
2018-09-25T16:23:47.985Z,18.14
2018-09-25T16:26:23.148Z,18.33
2018-09-25T16:28:57.666Z,18.13
2018-09-25T16:31:32.759Z,17.75
2018-09-25T16:34:06.976Z,18.12
2018-09-25T16:36:41.549Z,18.33
2018-09-25T16:39:16.927Z,18.30
2018-09-25T16:41:51.156Z,17.97
2018-09-25T16:44:25.290Z,17.58
2018-09-25T16:46:59.411Z,17.13
2018-09-25T16:49:33.446Z,17.08
2018-09-25T16:52:07.935Z,16.82
2018-09-25T16:54:42.139Z,16.88
2018-09-25T16:57:16.706Z,17.02
2018-09-25T16:59:50.842Z,16.82
2018-09-25T17:02:24.929Z,16.86
2018-09-25T17:04:58.950Z,16.70
2018-09-25T17:07:33.219Z,16.80
2018-09-25T17:10:07.784Z,16.73
2018-09-25T17:12:42.276Z,16.74
2018-09-25T17:15:16.448Z,16.67
2018-09-25T17:17:50.906Z,16.76
2018-09-25T17:20:25.065Z,16.82
2018-09-25T17:22:59.568Z,16.39
2018-09-25T17:25:33.735Z,16.56
2018-09-25T17:28:08.137Z,16.70
2018-09-25T17:30:42.954Z,16.61
2018-09-25T17:33:18.099Z,16.08
2018-09-25T17:35:52.282Z,16.13
2018-09-25T17:38:26.638Z,15.99
2018-09-25T17:41:01.714Z,16.02
2018-09-25T17:43:36.886Z,16.01
2018-09-25T17:46:11.919Z,15.90
2018-09-25T17:48:46.417Z,15.94
2018-09-25T17:51:22.228Z,15.93
2018-09-25T17:53:56.509Z,16.24
2018-09-25T17:56:30.563Z,15.95
2018-09-25T17:59:04.832Z,16.12
2018-09-25T18:01:38.967Z,16.09
2018-09-25T18:04:13.139Z,15.84
2018-09-25T18:06:47.231Z,16.02
2018-09-25T18:09:21.748Z,15.67
2018-09-25T18:11:56.400Z,15.70
2018-09-25T18:14:30.829Z,15.59
2018-09-25T18:17:04.957Z,15.72
2018-09-25T18:19:40.158Z,15.67
2018-09-25T18:22:14.154Z,15.50
2018-09-25T18:24:48.110Z,15.22
2018-09-25T18:27:22.168Z,15.26
2018-09-25T18:29:56.652Z,15.26
2018-09-25T18:32:31.077Z,15.14
2018-09-25T18:35:05.531Z,15.18
2018-09-25T18:37:39.569Z,15.04
2018-09-25T18:40:14.139Z,15.25
2018-09-25T18:42:48.153Z,15.24
2018-09-25T18:45:22.662Z,15.27
2018-09-25T18:47:56.676Z,15.32
2018-09-25T18:50:31.392Z,15.31
2018-09-25T18:53:05.728Z,15.19
2018-09-25T18:55:39.824Z,14.91
2018-09-25T18:58:13.855Z,14.86
2018-09-25T19:00:48.421Z,14.82
2018-09-25T19:03:22.550Z,14.92
2018-09-25T19:05:56.847Z,14.69
2018-09-25T19:08:31.014Z,14.65
2018-09-25T19:11:05.497Z,14.60
2018-09-25T19:13:39.918Z,14.72
2018-09-25T19:16:14.570Z,14.78
2018-09-25T19:18:49.607Z,14.58
2018-09-25T19:21:23.891Z,14.53
2018-09-25T19:23:58.161Z,14.66
2018-09-25T19:26:32.531Z,14.57
2018-09-25T19:29:06.892Z,14.38
2018-09-25T19:31:41.494Z,14.49
2018-09-25T19:34:15.569Z,14.47
2018-09-25T19:36:49.992Z,14.37
2018-09-25T19:39:24.055Z,14.40
2018-09-25T19:41:58.315Z,14.32
2018-09-25T19:44:32.288Z,14.25
2018-09-25T19:47:06.247Z,14.38
2018-09-25T19:49:40.453Z,14.38
2018-09-25T19:52:14.896Z,14.34
2018-09-25T19:54:48.973Z,14.37
2018-09-25T19:57:23.402Z,14.33
2018-09-25T19:59:57.514Z,14.28
2018-09-25T20:02:31.560Z,14.21
2018-09-25T20:05:05.695Z,14.23
2018-09-25T20:07:39.676Z,14.16
2018-09-25T20:10:13.795Z,14.23
2018-09-25T20:12:47.907Z,14.13
2018-09-25T20:15:22.885Z,14.33
2018-09-25T20:17:57.143Z,14.24
2018-09-25T20:20:31.058Z,14.27
2018-09-25T20:23:05.243Z,14.38
2018-09-25T20:25:39.282Z,14.22
2018-09-25T20:28:13.512Z,14.27
2018-09-25T20:30:47.436Z,14.23
2018-09-25T20:33:21.924Z,14.16
2018-09-25T20:35:55.918Z,14.22
2018-09-25T20:38:30.341Z,14.07
2018-09-25T20:41:04.507Z,14.00
2018-09-25T20:43:38.486Z,13.82
2018-09-25T20:46:12.745Z,13.85
2018-09-25T20:48:47.008Z,13.82
2018-09-25T20:51:21.141Z,13.77
2018-09-25T20:53:55.182Z,13.64
2018-09-25T20:56:29.448Z,13.74
2018-09-25T20:59:03.831Z,13.70
2018-09-25T21:01:37.821Z,13.78
2018-09-25T21:04:12.039Z,13.64
2018-09-25T21:06:46.017Z,13.73
2018-09-25T21:09:20.451Z,13.68
2018-09-25T21:11:54.481Z,13.68
2018-09-25T21:14:28.961Z,13.62
2018-09-25T21:17:02.919Z,13.65
2018-09-25T21:19:37.493Z,13.74
2018-09-25T21:22:11.791Z,13.54
2018-09-25T21:24:46.345Z,13.66
2018-09-25T21:27:20.943Z,13.42
2018-09-25T21:29:55.141Z,13.45
2018-09-25T21:32:29.324Z,13.42
2018-09-25T21:35:03.726Z,13.36
2018-09-25T21:37:37.904Z,13.29
2018-09-25T21:40:12.265Z,13.35
2018-09-25T21:42:46.313Z,13.43
2018-09-25T21:45:20.336Z,13.24
2018-09-25T21:47:54.513Z,13.12
2018-09-25T21:50:29.014Z,13.11
2018-09-25T21:53:02.933Z,12.96
2018-09-25T21:55:37.405Z,12.89
2018-09-25T21:58:11.552Z,12.98
2018-09-25T22:00:45.654Z,13.03
2018-09-25T22:03:19.639Z,12.95
2018-09-25T22:05:54.091Z,12.96
2018-09-25T22:08:28.167Z,12.97
2018-09-25T22:11:02.330Z,12.93
2018-09-25T22:13:36.369Z,12.91
2018-09-25T22:16:10.959Z,12.89
2018-09-25T22:18:45.138Z,12.90
2018-09-25T22:21:19.513Z,12.83
2018-09-25T22:23:53.507Z,12.78
2018-09-25T22:26:27.861Z,12.81
2018-09-25T22:29:01.985Z,12.84
2018-09-25T22:31:36.117Z,12.74
2018-09-25T22:34:10.357Z,12.80
2018-09-25T22:36:44.871Z,12.79
2018-09-25T22:39:18.981Z,12.81
2018-09-25T22:41:53.088Z,12.86
2018-09-25T22:44:27.352Z,12.84
2018-09-25T22:47:01.703Z,12.78
2018-09-25T22:49:35.725Z,12.74
2018-09-25T22:52:09.892Z,12.72
2018-09-25T22:54:44.036Z,12.70
2018-09-25T22:57:18.490Z,12.66
2018-09-25T22:59:52.510Z,12.83
2018-09-25T23:02:26.686Z,12.74
2018-09-25T23:05:00.727Z,12.62
2018-09-25T23:07:35.131Z,12.76
2018-09-25T23:10:09.268Z,12.69
2018-09-25T23:12:43.420Z,12.71
2018-09-25T23:15:17.500Z,12.68
2018-09-25T23:17:51.920Z,12.66
2018-09-25T23:20:26.192Z,12.76
2018-09-25T23:23:00.450Z,12.58
2018-09-25T23:25:34.628Z,12.57
2018-09-25T23:28:09.088Z,12.61
2018-09-25T23:30:43.254Z,12.57
2018-09-25T23:33:17.466Z,12.56
2018-09-25T23:35:51.433Z,12.60
2018-09-25T23:38:25.950Z,12.71
2018-09-25T23:40:59.919Z,12.52
2018-09-25T23:43:45.908Z,12.43
2018-09-25T23:46:34.101Z,12.52
2018-09-25T23:49:08.085Z,12.50
2018-09-25T23:51:42.159Z,12.41
2018-09-25T23:54:20.356Z,12.48
2018-09-25T23:56:59.563Z,12.41
2018-09-25T23:59:34.017Z,12.52
